sensor_id;sensor_type;location;lat;lon;timestamp;temperature;humidity
13642;DHT22;6894;52.196;9.904;2023-12-22T00:02:17;5.80;99.90
13642;DHT22;6894;52.196;9.904;2023-12-22T00:04:45;5.80;1.00
13642;DHT22;6894;52.196;9.904;2023-12-22T00:07:13;5.70;1.00
13642;DHT22;6894;52.196;9.904;2023-12-22T00:09:40;5.80;99.90
13642;DHT22;6894;52.196;9.904;2023-12-22T00:12:07;5.80;99.90
13642;DHT22;6894;52.196;9.904;2023-12-22T00:14:33;5.80;99.90
13642;DHT22;6894;52.196;9.904;2023-12-22T00:17:00;5.70;99.90
13642;DHT22;6894;52.196;9.904;2023-12-22T00:19:27;5.70;99.90
13642;DHT22;6894;52.196;9.904;2023-12-22T00:21:53;5.70;99.90
13642;DHT22;6894;52.196;9.904;2023-12-22T00:24:21;5.60;1.00
13642;DHT22;6894;52.196;9.904;2023-12-22T00:26:48;5.60;1.00
13642;DHT22;6894;52.196;9.904;2023-12-22T00:29:15;5.50;1.00
13642;DHT22;6894;52.196;9.904;2023-12-22T00:31:41;5.50;1.00
13642;DHT22;6894;52.196;9.904;2023-12-22T00:34:08;5.50;1.00
13642;DHT22;6894;52.196;9.904;2023-12-22T00:36:35;5.50;1.00
13642;DHT22;6894;52.196;9.904;2023-12-22T00:39:02;5.50;1.00
13642;DHT22;6894;52.196;9.904;2023-12-22T00:41:31;5.50;99.90
13642;DHT22;6894;52.196;9.904;2023-12-22T00:43:57;5.50;1.00
13642;DHT22;6894;52.196;9.904;2023-12-22T00:46:24;5.50;1.00
13642;DHT22;6894;52.196;9.904;2023-12-22T00:48:51;5.50;99.90
13642;DHT22;6894;52.196;9.904;2023-12-22T00:51:17;5.50;91.40
13642;DHT22;6894;52.196;9.904;2023-12-22T00:53:44;5.50;99.90
13642;DHT22;6894;52.196;9.904;2023-12-22T00:56:11;5.50;1.00
13642;DHT22;6894;52.196;9.904;2023-12-22T00:58:40;5.50;1.00
13642;DHT22;6894;52.196;9.904;2023-12-22T01:01:06;5.60;1.00
13642;DHT22;6894;52.196;9.904;2023-12-22T01:03:33;5.60;1.00
13642;DHT22;6894;52.196;9.904;2023-12-22T01:06:00;5.50;1.00
13642;DHT22;6894;52.196;9.904;2023-12-22T01:08:27;5.60;99.90
13642;DHT22;6894;52.196;9.904;2023-12-22T01:10:53;5.60;99.90
13642;DHT22;6894;52.196;9.904;2023-12-22T01:13:20;5.60;1.00
13642;DHT22;6894;52.196;9.904;2023-12-22T01:15:48;5.60;99.90
13642;DHT22;6894;52.196;9.904;2023-12-22T01:18:15;5.60;99.90
13642;DHT22;6894;52.196;9.904;2023-12-22T01:20:41;5.70;1.00
13642;DHT22;6894;52.196;9.904;2023-12-22T01:23:08;5.60;1.00
13642;DHT22;6894;52.196;9.904;2023-12-22T01:25:35;5.60;99.90
13642;DHT22;6894;52.196;9.904;2023-12-22T01:28:02;5.60;1.00
13642;DHT22;6894;52.196;9.904;2023-12-22T01:30:28;5.60;1.00
13642;DHT22;6894;52.196;9.904;2023-12-22T01:32:56;5.60;1.00
13642;DHT22;6894;52.196;9.904;2023-12-22T01:35:23;5.60;1.00
13642;DHT22;6894;52.196;9.904;2023-12-22T01:37:50;5.60;1.00
13642;DHT22;6894;52.196;9.904;2023-12-22T01:40:17;5.60;1.00
13642;DHT22;6894;52.196;9.904;2023-12-22T01:42:43;5.70;1.00
13642;DHT22;6894;52.196;9.904;2023-12-22T01:45:11;5.70;1.00
13642;DHT22;6894;52.196;9.904;2023-12-22T01:47:37;5.70;1.00
13642;DHT22;6894;52.196;9.904;2023-12-22T01:50:07;5.70;1.00
13642;DHT22;6894;52.196;9.904;2023-12-22T01:52:36;5.70;1.00
13642;DHT22;6894;52.196;9.904;2023-12-22T01:55:03;5.70;99.90
13642;DHT22;6894;52.196;9.904;2023-12-22T01:57:30;5.70;99.90
13642;DHT22;6894;52.196;9.904;2023-12-22T01:59:57;5.60;86.20
13642;DHT22;6894;52.196;9.904;2023-12-22T02:02:24;5.60;1.00
13642;DHT22;6894;52.196;9.904;2023-12-22T02:04:51;5.60;1.00
13642;DHT22;6894;52.196;9.904;2023-12-22T02:07:19;5.60;1.00
13642;DHT22;6894;52.196;9.904;2023-12-22T02:09:46;5.60;1.00
13642;DHT22;6894;52.196;9.904;2023-12-22T02:12:13;5.60;99.90
13642;DHT22;6894;52.196;9.904;2023-12-22T02:14:40;5.50;1.00
13642;DHT22;6894;52.196;9.904;2023-12-22T02:17:11;5.50;1.00
13642;DHT22;6894;52.196;9.904;2023-12-22T02:19:42;5.60;99.90
13642;DHT22;6894;52.196;9.904;2023-12-22T02:22:09;5.60;1.00
13642;DHT22;6894;52.196;9.904;2023-12-22T02:24:38;5.60;1.00
13642;DHT22;6894;52.196;9.904;2023-12-22T02:27:10;5.60;1.00
13642;DHT22;6894;52.196;9.904;2023-12-22T02:29:43;5.60;1.00
13642;DHT22;6894;52.196;9.904;2023-12-22T02:32:17;5.50;1.00
13642;DHT22;6894;52.196;9.904;2023-12-22T02:34:46;5.50;1.00
13642;DHT22;6894;52.196;9.904;2023-12-22T02:37:16;5.50;1.00
13642;DHT22;6894;52.196;9.904;2023-12-22T02:39:46;5.50;99.90
13642;DHT22;6894;52.196;9.904;2023-12-22T02:42:13;5.40;1.00
13642;DHT22;6894;52.196;9.904;2023-12-22T02:44:40;5.30;1.00
13642;DHT22;6894;52.196;9.904;2023-12-22T02:47:06;5.20;1.00
13642;DHT22;6894;52.196;9.904;2023-12-22T02:49:33;5.20;99.90
13642;DHT22;6894;52.196;9.904;2023-12-22T02:52:00;5.20;1.00
13642;DHT22;6894;52.196;9.904;2023-12-22T02:54:27;5.20;1.00
13642;DHT22;6894;52.196;9.904;2023-12-22T02:56:56;5.10;1.00
13642;DHT22;6894;52.196;9.904;2023-12-22T02:59:24;5.10;1.00
13642;DHT22;6894;52.196;9.904;2023-12-22T03:01:53;5.10;99.90
13642;DHT22;6894;52.196;9.904;2023-12-22T03:04:19;5.20;30.30
13642;DHT22;6894;52.196;9.904;2023-12-22T03:06:46;5.20;99.20
13642;DHT22;6894;52.196;9.904;2023-12-22T03:09:13;5.30;1.00
13642;DHT22;6894;52.196;9.904;2023-12-22T03:11:39;5.30;1.00
13642;DHT22;6894;52.196;9.904;2023-12-22T03:14:07;5.20;1.00
13642;DHT22;6894;52.196;9.904;2023-12-22T03:16:34;5.20;1.00
13642;DHT22;6894;52.196;9.904;2023-12-22T03:19:00;5.20;1.00
13642;DHT22;6894;52.196;9.904;2023-12-22T03:21:27;5.30;1.00
13642;DHT22;6894;52.196;9.904;2023-12-22T03:23:53;5.30;1.00
13642;DHT22;6894;52.196;9.904;2023-12-22T03:26:20;5.30;1.00
13642;DHT22;6894;52.196;9.904;2023-12-22T03:28:47;5.20;1.00
13642;DHT22;6894;52.196;9.904;2023-12-22T03:31:15;5.30;99.90
13642;DHT22;6894;52.196;9.904;2023-12-22T03:33:41;5.30;99.90
13642;DHT22;6894;52.196;9.904;2023-12-22T03:36:08;5.30;37.80
13642;DHT22;6894;52.196;9.904;2023-12-22T03:38:35;5.30;99.90
13642;DHT22;6894;52.196;9.904;2023-12-22T03:41:01;5.40;99.90
13642;DHT22;6894;52.196;9.904;2023-12-22T03:43:28;5.40;99.90
13642;DHT22;6894;52.196;9.904;2023-12-22T03:45:56;5.30;1.00
13642;DHT22;6894;52.196;9.904;2023-12-22T03:48:24;5.30;1.00
13642;DHT22;6894;52.196;9.904;2023-12-22T03:50:52;5.30;1.00
13642;DHT22;6894;52.196;9.904;2023-12-22T03:53:19;5.30;1.00
13642;DHT22;6894;52.196;9.904;2023-12-22T03:55:46;5.30;1.00
13642;DHT22;6894;52.196;9.904;2023-12-22T03:58:12;5.20;1.00
13642;DHT22;6894;52.196;9.904;2023-12-22T04:00:39;5.30;1.00
13642;DHT22;6894;52.196;9.904;2023-12-22T04:03:06;5.20;1.00
13642;DHT22;6894;52.196;9.904;2023-12-22T04:05:34;5.20;1.00
13642;DHT22;6894;52.196;9.904;2023-12-22T04:08:00;5.30;1.00
13642;DHT22;6894;52.196;9.904;2023-12-22T04:10:27;5.30;1.00
13642;DHT22;6894;52.196;9.904;2023-12-22T04:12:54;5.30;1.00
13642;DHT22;6894;52.196;9.904;2023-12-22T04:15:20;5.30;1.00
13642;DHT22;6894;52.196;9.904;2023-12-22T04:17:47;5.30;99.90
13642;DHT22;6894;52.196;9.904;2023-12-22T04:20:15;5.20;99.90
13642;DHT22;6894;52.196;9.904;2023-12-22T04:22:43;5.30;14.60
13642;DHT22;6894;52.196;9.904;2023-12-22T04:25:10;5.30;1.00
13642;DHT22;6894;52.196;9.904;2023-12-22T04:27:37;5.30;1.00
13642;DHT22;6894;52.196;9.904;2023-12-22T04:30:05;5.30;1.00
13642;DHT22;6894;52.196;9.904;2023-12-22T04:32:31;5.30;1.00
13642;DHT22;6894;52.196;9.904;2023-12-22T04:34:58;5.40;1.00
13642;DHT22;6894;52.196;9.904;2023-12-22T04:37:24;5.40;1.00
13642;DHT22;6894;52.196;9.904;2023-12-22T04:39:52;5.40;99.90
13642;DHT22;6894;52.196;9.904;2023-12-22T04:42:19;5.50;8.80
13642;DHT22;6894;52.196;9.904;2023-12-22T04:44:45;5.50;99.90
13642;DHT22;6894;52.196;9.904;2023-12-22T04:47:12;5.60;1.00
13642;DHT22;6894;52.196;9.904;2023-12-22T04:49:39;5.60;1.00
13642;DHT22;6894;52.196;9.904;2023-12-22T04:52:06;5.60;1.00
13642;DHT22;6894;52.196;9.904;2023-12-22T04:54:32;5.60;1.00
13642;DHT22;6894;52.196;9.904;2023-12-22T04:57:01;5.60;1.00
13642;DHT22;6894;52.196;9.904;2023-12-22T04:59:27;5.70;1.00
13642;DHT22;6894;52.196;9.904;2023-12-22T05:01:54;5.70;1.00
13642;DHT22;6894;52.196;9.904;2023-12-22T05:04:21;5.70;1.00
13642;DHT22;6894;52.196;9.904;2023-12-22T05:06:47;5.70;99.90
13642;DHT22;6894;52.196;9.904;2023-12-22T05:09:14;5.80;99.90
13642;DHT22;6894;52.196;9.904;2023-12-22T05:11:41;5.80;99.90
13642;DHT22;6894;52.196;9.904;2023-12-22T05:14:10;5.80;99.90
13642;DHT22;6894;52.196;9.904;2023-12-22T05:16:36;5.80;1.00
13642;DHT22;6894;52.196;9.904;2023-12-22T05:19:03;5.70;1.00
13642;DHT22;6894;52.196;9.904;2023-12-22T05:21:30;5.70;99.90
13642;DHT22;6894;52.196;9.904;2023-12-22T05:23:56;5.70;1.00
13642;DHT22;6894;52.196;9.904;2023-12-22T05:26:24;5.70;1.00
13642;DHT22;6894;52.196;9.904;2023-12-22T05:28:55;5.60;1.00
13642;DHT22;6894;52.196;9.904;2023-12-22T05:31:23;5.60;1.00
13642;DHT22;6894;52.196;9.904;2023-12-22T05:33:50;5.50;70.30
13642;DHT22;6894;52.196;9.904;2023-12-22T05:36:17;5.40;99.90
13642;DHT22;6894;52.196;9.904;2023-12-22T05:38:43;5.40;99.90
13642;DHT22;6894;52.196;9.904;2023-12-22T05:41:11;5.40;1.00
13642;DHT22;6894;52.196;9.904;2023-12-22T05:43:37;5.40;1.00
13642;DHT22;6894;52.196;9.904;2023-12-22T05:46:04;5.40;1.00
13642;DHT22;6894;52.196;9.904;2023-12-22T05:48:34;5.40;10.70
13642;DHT22;6894;52.196;9.904;2023-12-22T05:51:00;5.40;1.00
13642;DHT22;6894;52.196;9.904;2023-12-22T05:53:28;5.50;1.00
13642;DHT22;6894;52.196;9.904;2023-12-22T05:55:55;5.50;1.00
13642;DHT22;6894;52.196;9.904;2023-12-22T05:58:22;5.60;1.00
13642;DHT22;6894;52.196;9.904;2023-12-22T06:00:49;5.60;1.00
13642;DHT22;6894;52.196;9.904;2023-12-22T06:03:15;5.60;1.00
13642;DHT22;6894;52.196;9.904;2023-12-22T06:05:43;5.60;1.00
13642;DHT22;6894;52.196;9.904;2023-12-22T06:08:10;5.60;1.00
13642;DHT22;6894;52.196;9.904;2023-12-22T06:10:36;5.60;1.00
13642;DHT22;6894;52.196;9.904;2023-12-22T06:13:03;5.70;1.00
13642;DHT22;6894;52.196;9.904;2023-12-22T06:15:30;5.60;1.00
13642;DHT22;6894;52.196;9.904;2023-12-22T06:17:57;5.70;99.90
13642;DHT22;6894;52.196;9.904;2023-12-22T06:20:24;5.70;99.90
13642;DHT22;6894;52.196;9.904;2023-12-22T06:22:53;5.70;1.00
13642;DHT22;6894;52.196;9.904;2023-12-22T06:25:19;5.70;1.00
13642;DHT22;6894;52.196;9.904;2023-12-22T06:27:46;5.70;1.00
13642;DHT22;6894;52.196;9.904;2023-12-22T06:30:13;5.60;1.00
13642;DHT22;6894;52.196;9.904;2023-12-22T06:32:40;5.60;99.90
13642;DHT22;6894;52.196;9.904;2023-12-22T06:35:08;5.50;1.00
13642;DHT22;6894;52.196;9.904;2023-12-22T06:37:36;5.40;99.90
13642;DHT22;6894;52.196;9.904;2023-12-22T06:40:05;5.30;1.00
13642;DHT22;6894;52.196;9.904;2023-12-22T06:42:32;5.10;1.00
13642;DHT22;6894;52.196;9.904;2023-12-22T06:44:59;4.80;99.90
13642;DHT22;6894;52.196;9.904;2023-12-22T06:47:25;4.50;1.00
13642;DHT22;6894;52.196;9.904;2023-12-22T06:49:52;4.30;1.00
13642;DHT22;6894;52.196;9.904;2023-12-22T06:52:19;4.20;1.00
13642;DHT22;6894;52.196;9.904;2023-12-22T06:54:46;4.00;1.00
13642;DHT22;6894;52.196;9.904;2023-12-22T06:57:14;3.60;1.00
13642;DHT22;6894;52.196;9.904;2023-12-22T06:59:42;3.30;1.00
13642;DHT22;6894;52.196;9.904;2023-12-22T07:02:08;3.20;1.00
13642;DHT22;6894;52.196;9.904;2023-12-22T07:05:04;3.20;1.00
13642;DHT22;6894;52.196;9.904;2023-12-22T07:07:51;3.20;1.00
13642;DHT22;6894;52.196;9.904;2023-12-22T07:10:18;3.20;1.00
13642;DHT22;6894;52.196;9.904;2023-12-22T07:12:45;3.20;1.00
13642;DHT22;6894;52.196;9.904;2023-12-22T07:15:12;3.20;99.90
13642;DHT22;6894;52.196;9.904;2023-12-22T07:17:38;4.00;16.30
13642;DHT22;6894;52.196;9.904;2023-12-22T07:20:06;3.10;1.00
13642;DHT22;6894;52.196;9.904;2023-12-22T07:22:34;3.10;1.00
13642;DHT22;6894;52.196;9.904;2023-12-22T07:25:03;3.10;99.90
13642;DHT22;6894;52.196;9.904;2023-12-22T07:27:30;3.20;99.90
13642;DHT22;6894;52.196;9.904;2023-12-22T07:29:57;3.20;1.00
13642;DHT22;6894;52.196;9.904;2023-12-22T07:32:24;3.40;15.50
13642;DHT22;6894;52.196;9.904;2023-12-22T07:34:50;3.60;99.90
13642;DHT22;6894;52.196;9.904;2023-12-22T07:37:17;4.10;1.00
13642;DHT22;6894;52.196;9.904;2023-12-22T07:39:44;4.50;99.90
13642;DHT22;6894;52.196;9.904;2023-12-22T07:42:12;4.80;99.90
13642;DHT22;6894;52.196;9.904;2023-12-22T07:44:39;6.30;99.90
13642;DHT22;6894;52.196;9.904;2023-12-22T07:47:06;5.00;99.90
13642;DHT22;6894;52.196;9.904;2023-12-22T07:49:35;5.00;99.90
13642;DHT22;6894;52.196;9.904;2023-12-22T07:52:01;5.00;99.90
13642;DHT22;6894;52.196;9.904;2023-12-22T07:54:28;5.10;1.00
13642;DHT22;6894;52.196;9.904;2023-12-22T07:56:55;5.30;1.00
13642;DHT22;6894;52.196;9.904;2023-12-22T07:59:23;5.30;1.00
13642;DHT22;6894;52.196;9.904;2023-12-22T08:01:50;5.40;1.00
13642;DHT22;6894;52.196;9.904;2023-12-22T08:04:16;5.40;1.00
13642;DHT22;6894;52.196;9.904;2023-12-22T08:06:43;5.40;1.00
13642;DHT22;6894;52.196;9.904;2023-12-22T08:09:10;5.40;99.90
13642;DHT22;6894;52.196;9.904;2023-12-22T08:11:37;5.30;99.90
13642;DHT22;6894;52.196;9.904;2023-12-22T08:14:03;5.20;1.00
13642;DHT22;6894;52.196;9.904;2023-12-22T08:16:31;5.20;1.00
13642;DHT22;6894;52.196;9.904;2023-12-22T08:18:59;5.60;1.00
13642;DHT22;6894;52.196;9.904;2023-12-22T08:21:26;5.80;1.00
13642;DHT22;6894;52.196;9.904;2023-12-22T08:23:52;5.90;1.00
13642;DHT22;6894;52.196;9.904;2023-12-22T08:26:19;5.90;99.90
13642;DHT22;6894;52.196;9.904;2023-12-22T08:28:47;5.90;99.90
13642;DHT22;6894;52.196;9.904;2023-12-22T08:31:13;5.90;1.00
13642;DHT22;6894;52.196;9.904;2023-12-22T08:33:41;5.90;1.00
13642;DHT22;6894;52.196;9.904;2023-12-22T08:36:09;5.90;1.00
13642;DHT22;6894;52.196;9.904;2023-12-22T08:38:36;6.00;99.90
13642;DHT22;6894;52.196;9.904;2023-12-22T08:41:06;6.20;1.00
13642;DHT22;6894;52.196;9.904;2023-12-22T08:43:32;6.20;99.90
13642;DHT22;6894;52.196;9.904;2023-12-22T08:46:00;6.30;99.90
13642;DHT22;6894;52.196;9.904;2023-12-22T08:48:26;6.40;1.00
13642;DHT22;6894;52.196;9.904;2023-12-22T08:50:54;6.50;99.90
13642;DHT22;6894;52.196;9.904;2023-12-22T08:53:21;6.50;1.00
13642;DHT22;6894;52.196;9.904;2023-12-22T08:55:48;6.50;99.90
13642;DHT22;6894;52.196;9.904;2023-12-22T08:58:15;6.50;44.10
13642;DHT22;6894;52.196;9.904;2023-12-22T09:00:41;6.50;1.00
13642;DHT22;6894;52.196;9.904;2023-12-22T09:03:08;6.50;99.90
13642;DHT22;6894;52.196;9.904;2023-12-22T09:05:35;6.60;99.90
13642;DHT22;6894;52.196;9.904;2023-12-22T09:08:04;6.60;99.90
13642;DHT22;6894;52.196;9.904;2023-12-22T09:10:31;6.70;1.00
13642;DHT22;6894;52.196;9.904;2023-12-22T09:12:58;6.70;1.00
13642;DHT22;6894;52.196;9.904;2023-12-22T09:15:26;6.80;1.00
13642;DHT22;6894;52.196;9.904;2023-12-22T09:17:53;6.70;1.00
13642;DHT22;6894;52.196;9.904;2023-12-22T09:20:21;6.70;99.90
13642;DHT22;6894;52.196;9.904;2023-12-22T09:22:48;6.80;1.00
13642;DHT22;6894;52.196;9.904;2023-12-22T09:25:16;6.90;99.90
13642;DHT22;6894;52.196;9.904;2023-12-22T09:27:43;7.00;99.90
13642;DHT22;6894;52.196;9.904;2023-12-22T09:30:10;7.00;1.00
13642;DHT22;6894;52.196;9.904;2023-12-22T09:32:37;7.00;99.90
13642;DHT22;6894;52.196;9.904;2023-12-22T09:35:04;7.00;1.00
13642;DHT22;6894;52.196;9.904;2023-12-22T09:37:31;7.10;1.00
13642;DHT22;6894;52.196;9.904;2023-12-22T09:39:58;7.10;67.40
13642;DHT22;6894;52.196;9.904;2023-12-22T09:42:27;7.10;1.00
13642;DHT22;6894;52.196;9.904;2023-12-22T09:44:55;7.00;29.90
13642;DHT22;6894;52.196;9.904;2023-12-22T09:47:26;6.90;1.00
13642;DHT22;6894;52.196;9.904;2023-12-22T09:49:55;6.80;85.70
13642;DHT22;6894;52.196;9.904;2023-12-22T09:52:22;6.80;24.30
13642;DHT22;6894;52.196;9.904;2023-12-22T09:54:49;6.70;99.90
13642;DHT22;6894;52.196;9.904;2023-12-22T09:57:16;6.70;99.90
13642;DHT22;6894;52.196;9.904;2023-12-22T09:59:48;6.60;99.90
13642;DHT22;6894;52.196;9.904;2023-12-22T10:02:15;6.60;99.90
13642;DHT22;6894;52.196;9.904;2023-12-22T10:04:45;6.60;99.90
13642;DHT22;6894;52.196;9.904;2023-12-22T10:07:13;7.20;99.90
13642;DHT22;6894;52.196;9.904;2023-12-22T10:09:41;6.50;1.00
13642;DHT22;6894;52.196;9.904;2023-12-22T10:12:09;6.50;1.00
13642;DHT22;6894;52.196;9.904;2023-12-22T10:14:38;6.40;1.00
13642;DHT22;6894;52.196;9.904;2023-12-22T10:17:07;6.40;1.00
13642;DHT22;6894;52.196;9.904;2023-12-22T10:19:34;6.40;99.90
13642;DHT22;6894;52.196;9.904;2023-12-22T10:22:00;6.40;97.60
13642;DHT22;6894;52.196;9.904;2023-12-22T10:24:36;6.40;1.00
13642;DHT22;6894;52.196;9.904;2023-12-22T10:27:03;6.40;1.00
13642;DHT22;6894;52.196;9.904;2023-12-22T10:29:33;6.40;1.00
13642;DHT22;6894;52.196;9.904;2023-12-22T10:32:00;6.30;31.30
13642;DHT22;6894;52.196;9.904;2023-12-22T10:34:29;6.30;99.90
13642;DHT22;6894;52.196;9.904;2023-12-22T10:36:56;6.20;99.90
13642;DHT22;6894;52.196;9.904;2023-12-22T10:39:23;6.20;99.90
13642;DHT22;6894;52.196;9.904;2023-12-22T10:41:53;6.30;1.00
13642;DHT22;6894;52.196;9.904;2023-12-22T10:44:20;6.20;99.90
13642;DHT22;6894;52.196;9.904;2023-12-22T10:46:47;6.30;99.90
13642;DHT22;6894;52.196;9.904;2023-12-22T10:49:14;6.30;99.90
13642;DHT22;6894;52.196;9.904;2023-12-22T10:51:42;6.40;99.90
13642;DHT22;6894;52.196;9.904;2023-12-22T10:54:09;6.40;1.00
13642;DHT22;6894;52.196;9.904;2023-12-22T10:56:36;6.50;1.00
13642;DHT22;6894;52.196;9.904;2023-12-22T10:59:03;6.50;1.00
13642;DHT22;6894;52.196;9.904;2023-12-22T11:01:30;6.60;1.00
13642;DHT22;6894;52.196;9.904;2023-12-22T11:04:02;6.70;1.00
13642;DHT22;6894;52.196;9.904;2023-12-22T11:06:30;6.70;99.90
13642;DHT22;6894;52.196;9.904;2023-12-22T11:09:04;6.70;99.90
13642;DHT22;6894;52.196;9.904;2023-12-22T11:11:33;6.90;99.90
13642;DHT22;6894;52.196;9.904;2023-12-22T11:14:01;6.90;99.90
13642;DHT22;6894;52.196;9.904;2023-12-22T11:16:28;7.00;99.90
13642;DHT22;6894;52.196;9.904;2023-12-22T11:18:55;7.00;99.90
13642;DHT22;6894;52.196;9.904;2023-12-22T11:21:23;7.10;99.90
13642;DHT22;6894;52.196;9.904;2023-12-22T11:23:50;7.10;1.00
13642;DHT22;6894;52.196;9.904;2023-12-22T11:26:19;7.10;99.90
13642;DHT22;6894;52.196;9.904;2023-12-22T11:28:47;7.10;1.00
13642;DHT22;6894;52.196;9.904;2023-12-22T11:31:14;7.10;1.00
13642;DHT22;6894;52.196;9.904;2023-12-22T11:33:47;7.20;1.00
13642;DHT22;6894;52.196;9.904;2023-12-22T11:36:16;7.20;1.00
13642;DHT22;6894;52.196;9.904;2023-12-22T11:38:44;7.30;1.00
13642;DHT22;6894;52.196;9.904;2023-12-22T11:41:14;7.40;1.00
13642;DHT22;6894;52.196;9.904;2023-12-22T11:43:44;7.40;1.00
13642;DHT22;6894;52.196;9.904;2023-12-22T11:46:11;7.40;99.90
13642;DHT22;6894;52.196;9.904;2023-12-22T11:48:38;7.40;99.90
13642;DHT22;6894;52.196;9.904;2023-12-22T11:51:12;7.60;1.00
13642;DHT22;6894;52.196;9.904;2023-12-22T11:53:40;7.40;1.00
13642;DHT22;6894;52.196;9.904;2023-12-22T11:56:08;7.40;1.00
13642;DHT22;6894;52.196;9.904;2023-12-22T11:58:36;7.40;1.00
13642;DHT22;6894;52.196;9.904;2023-12-22T12:01:06;7.40;1.00
13642;DHT22;6894;52.196;9.904;2023-12-22T12:03:36;7.40;1.00
13642;DHT22;6894;52.196;9.904;2023-12-22T12:06:14;7.40;1.00
13642;DHT22;6894;52.196;9.904;2023-12-22T12:08:40;7.40;1.00
13642;DHT22;6894;52.196;9.904;2023-12-22T12:11:08;7.40;1.00
13642;DHT22;6894;52.196;9.904;2023-12-22T12:13:42;7.40;99.90
13642;DHT22;6894;52.196;9.904;2023-12-22T12:16:12;7.50;1.00
13642;DHT22;6894;52.196;9.904;2023-12-22T12:18:39;7.40;1.00
13642;DHT22;6894;52.196;9.904;2023-12-22T12:21:06;7.40;1.00
13642;DHT22;6894;52.196;9.904;2023-12-22T12:23:34;7.40;1.00
13642;DHT22;6894;52.196;9.904;2023-12-22T12:26:01;7.40;1.00
13642;DHT22;6894;52.196;9.904;2023-12-22T12:28:30;8.00;1.00
13642;DHT22;6894;52.196;9.904;2023-12-22T12:30:58;7.50;1.00
13642;DHT22;6894;52.196;9.904;2023-12-22T12:33:27;7.40;1.00
13642;DHT22;6894;52.196;9.904;2023-12-22T12:35:56;7.40;1.00
13642;DHT22;6894;52.196;9.904;2023-12-22T12:38:28;7.40;1.00
13642;DHT22;6894;52.196;9.904;2023-12-22T12:41:03;7.40;1.00
13642;DHT22;6894;52.196;9.904;2023-12-22T12:43:31;7.40;1.00
13642;DHT22;6894;52.196;9.904;2023-12-22T12:46:03;7.40;1.00
13642;DHT22;6894;52.196;9.904;2023-12-22T12:48:32;7.40;1.00
13642;DHT22;6894;52.196;9.904;2023-12-22T12:51:02;7.40;1.00
13642;DHT22;6894;52.196;9.904;2023-12-22T12:53:30;7.40;1.00
13642;DHT22;6894;52.196;9.904;2023-12-22T12:55:57;8.50;1.00
13642;DHT22;6894;52.196;9.904;2023-12-22T12:58:27;7.40;1.00
13642;DHT22;6894;52.196;9.904;2023-12-22T13:01:04;7.40;1.00
13642;DHT22;6894;52.196;9.904;2023-12-22T13:03:32;7.40;1.00
13642;DHT22;6894;52.196;9.904;2023-12-22T13:06:06;7.50;1.00
13642;DHT22;6894;52.196;9.904;2023-12-22T13:08:33;8.60;1.00
13642;DHT22;6894;52.196;9.904;2023-12-22T13:11:00;7.40;1.00
13642;DHT22;6894;52.196;9.904;2023-12-22T13:13:27;7.40;1.00
13642;DHT22;6894;52.196;9.904;2023-12-22T13:15:54;7.40;1.00
13642;DHT22;6894;52.196;9.904;2023-12-22T13:18:21;7.40;1.00
13642;DHT22;6894;52.196;9.904;2023-12-22T13:20:50;7.40;1.00
13642;DHT22;6894;52.196;9.904;2023-12-22T13:23:17;7.40;1.00
13642;DHT22;6894;52.196;9.904;2023-12-22T13:25:44;7.40;1.00
13642;DHT22;6894;52.196;9.904;2023-12-22T13:28:12;7.40;1.00
13642;DHT22;6894;52.196;9.904;2023-12-22T13:30:39;7.40;1.00
13642;DHT22;6894;52.196;9.904;2023-12-22T13:33:07;7.40;1.00
13642;DHT22;6894;52.196;9.904;2023-12-22T13:35:33;7.40;1.00
13642;DHT22;6894;52.196;9.904;2023-12-22T13:38:05;7.40;1.00
13642;DHT22;6894;52.196;9.904;2023-12-22T13:40:34;7.40;1.00
13642;DHT22;6894;52.196;9.904;2023-12-22T13:43:01;7.30;1.00
13642;DHT22;6894;52.196;9.904;2023-12-22T13:45:28;7.30;1.00
13642;DHT22;6894;52.196;9.904;2023-12-22T13:47:56;7.30;1.00
13642;DHT22;6894;52.196;9.904;2023-12-22T13:50:23;7.30;1.00
13642;DHT22;6894;52.196;9.904;2023-12-22T13:52:50;7.30;1.00
13642;DHT22;6894;52.196;9.904;2023-12-22T13:55:20;7.30;1.00
13642;DHT22;6894;52.196;9.904;2023-12-22T13:57:48;7.20;1.00
13642;DHT22;6894;52.196;9.904;2023-12-22T14:00:24;7.20;1.00
13642;DHT22;6894;52.196;9.904;2023-12-22T14:02:52;7.30;1.00
13642;DHT22;6894;52.196;9.904;2023-12-22T14:05:19;7.30;50.70
13642;DHT22;6894;52.196;9.904;2023-12-22T14:07:46;7.20;99.90
13642;DHT22;6894;52.196;9.904;2023-12-22T14:10:13;7.20;95.90
13642;DHT22;6894;52.196;9.904;2023-12-22T14:12:41;7.20;1.00
13642;DHT22;6894;52.196;9.904;2023-12-22T14:15:09;7.20;1.00
13642;DHT22;6894;52.196;9.904;2023-12-22T14:17:36;7.20;99.90
13642;DHT22;6894;52.196;9.904;2023-12-22T14:20:04;7.20;99.90
13642;DHT22;6894;52.196;9.904;2023-12-22T14:22:33;7.10;99.90
13642;DHT22;6894;52.196;9.904;2023-12-22T14:25:00;7.80;99.90
13642;DHT22;6894;52.196;9.904;2023-12-22T14:27:26;7.20;99.90
13642;DHT22;6894;52.196;9.904;2023-12-22T14:29:54;7.10;99.90
13642;DHT22;6894;52.196;9.904;2023-12-22T14:32:21;7.10;99.90
13642;DHT22;6894;52.196;9.904;2023-12-22T14:34:48;7.10;99.90
13642;DHT22;6894;52.196;9.904;2023-12-22T14:37:15;6.00;99.90
13642;DHT22;6894;52.196;9.904;2023-12-22T14:39:43;7.10;99.90
13642;DHT22;6894;52.196;9.904;2023-12-22T14:42:11;7.10;99.90
13642;DHT22;6894;52.196;9.904;2023-12-22T14:44:37;7.10;1.00
13642;DHT22;6894;52.196;9.904;2023-12-22T14:47:06;7.10;1.00
13642;DHT22;6894;52.196;9.904;2023-12-22T14:49:32;7.10;1.00
13642;DHT22;6894;52.196;9.904;2023-12-22T14:51:59;7.10;1.00
13642;DHT22;6894;52.196;9.904;2023-12-22T14:54:26;7.10;1.00
13642;DHT22;6894;52.196;9.904;2023-12-22T14:56:53;6.90;99.90
13642;DHT22;6894;52.196;9.904;2023-12-22T14:59:20;7.00;99.90
13642;DHT22;6894;52.196;9.904;2023-12-22T15:01:47;7.10;1.00
13642;DHT22;6894;52.196;9.904;2023-12-22T15:04:15;7.10;99.90
13642;DHT22;6894;52.196;9.904;2023-12-22T15:06:42;7.10;1.00
13642;DHT22;6894;52.196;9.904;2023-12-22T15:09:09;7.10;1.00
13642;DHT22;6894;52.196;9.904;2023-12-22T15:11:41;7.00;1.00
13642;DHT22;6894;52.196;9.904;2023-12-22T15:14:08;7.00;1.00
13642;DHT22;6894;52.196;9.904;2023-12-22T15:16:38;7.00;1.00
13642;DHT22;6894;52.196;9.904;2023-12-22T15:19:06;7.00;1.00
13642;DHT22;6894;52.196;9.904;2023-12-22T15:21:34;7.10;1.00
13642;DHT22;6894;52.196;9.904;2023-12-22T15:24:03;7.10;1.00
13642;DHT22;6894;52.196;9.904;2023-12-22T15:26:29;7.10;1.00
13642;DHT22;6894;52.196;9.904;2023-12-22T15:28:59;7.10;98.80
13642;DHT22;6894;52.196;9.904;2023-12-22T15:31:25;7.10;99.90
13642;DHT22;6894;52.196;9.904;2023-12-22T15:33:54;7.00;1.00
13642;DHT22;6894;52.196;9.904;2023-12-22T15:36:21;7.00;1.00
13642;DHT22;6894;52.196;9.904;2023-12-22T15:38:49;6.90;1.00
13642;DHT22;6894;52.196;9.904;2023-12-22T15:41:16;6.90;1.00
13642;DHT22;6894;52.196;9.904;2023-12-22T15:43:43;6.90;1.00
13642;DHT22;6894;52.196;9.904;2023-12-22T15:46:10;6.90;99.90
13642;DHT22;6894;52.196;9.904;2023-12-22T15:48:37;6.90;99.90
13642;DHT22;6894;52.196;9.904;2023-12-22T15:51:07;6.90;99.90
13642;DHT22;6894;52.196;9.904;2023-12-22T15:53:36;6.90;99.90
13642;DHT22;6894;52.196;9.904;2023-12-22T15:56:05;6.90;1.00
13642;DHT22;6894;52.196;9.904;2023-12-22T15:58:33;6.90;25.00
13642;DHT22;6894;52.196;9.904;2023-12-22T16:01:02;6.90;99.90
13642;DHT22;6894;52.196;9.904;2023-12-22T16:03:28;6.90;1.00
13642;DHT22;6894;52.196;9.904;2023-12-22T16:05:55;6.90;1.00
13642;DHT22;6894;52.196;9.904;2023-12-22T16:08:22;6.90;1.00
13642;DHT22;6894;52.196;9.904;2023-12-22T16:10:50;6.90;1.00
13642;DHT22;6894;52.196;9.904;2023-12-22T16:13:18;6.90;1.00
13642;DHT22;6894;52.196;9.904;2023-12-22T16:15:47;6.90;99.90